Clackamas — WDF6614 — position and weather

sailwx.info

Track history (hours):
 
Tides and Currents Weather Stations Pressure Air Temp Water Temp Dewpoint Dewpoint Depression Visibility Wind Speed Wind Dir Waves Ship Positions

Clackamas

More information available from US FCC via Universal Licensing System and Coast Guard Vessel Documentation Center.

Last reported at 2014-Aug-19 17:27 UTC. Time now 2014-Sep-03 00:01 UTC.
Position N 46°10' W 123°05'.
Warning: this ship's position is 14 days out of date.

Length 19 m.

Type: Dredging. MMSI: 367476050.

Date/timePositionNaut miles runAvg speedWind from/ knotsBaromVisibWave heightAir tempDewpointWater temp
2014-Aug-19 17:27N 46°10' W 123°05'0 0.0
2014-Aug-19 16:30N 46°10' W 123°05'0 0.0
2014-Aug-19 10:18N 46°10' W 123°05'0 0.0
2014-Aug-19 09:21N 46°10' W 123°05'0 0.0
2014-Aug-19 08:18N 46°10' W 123°05'0 0.0
2014-Aug-19 07:21N 46°10' W 123°05'0 0.0
2014-Aug-19 06:12N 46°10' W 123°05'0 0.0
2014-Aug-19 05:30N 46°10' W 123°05'1 0.1
2014-Aug-18 20:33N 46°10' W 123°04'0 0.3
2014-Aug-18 19:33N 46°10' W 123°04'3 3.0
2014-Aug-18 18:33N 46°11' W 123°08'2 2.3
2014-Aug-18 17:33N 46°10' W 123°05'0 0.4
2014-Aug-18 16:33N 46°10' W 123°06'0 0.1
2014-Aug-18 15:32N 46°10' W 123°06'1 0.1
2014-Aug-18 09:04N 46°10' W 123°05'0 0.0
2014-Aug-18 07:31N 46°10' W 123°05'0 0.0
2014-Aug-18 05:28N 46°10' W 123°05'0 0.0
2014-Aug-17 18:07N 46°10' W 123°05'0 0.0
2014-Aug-17 17:31N 46°10' W 123°05'0 0.0
2014-Aug-17 16:22N 46°10' W 123°05'0 0.0
2014-Aug-17 15:22N 46°10' W 123°05'0 0.0
2014-Aug-17 13:22N 46°10' W 123°05'0 0.0
2014-Aug-17 10:31N 46°10' W 123°05'0 0.0
2014-Aug-17 09:25N 46°10' W 123°05'0 0.0
2014-Aug-17 08:19N 46°10' W 123°05'0 0.0
2014-Aug-17 07:13N 46°10' W 123°05'0 0.0
2014-Aug-17 06:31N 46°10' W 123°05'0 0.0
2014-Aug-17 05:31N 46°10' W 123°05'0 0.0
2014-Aug-17 04:25N 46°10' W 123°05'2 0.1
2014-Aug-16 07:33N 46°11' W 123°08'3 2.8
2014-Aug-16 06:33N 46°11' W 123°12'4 3.9
2014-Aug-16 05:33N 46°09' W 123°17'4 4.3
2014-Aug-16 04:32N 46°09' W 123°23'4 3.2
2014-Aug-16 03:20N 46°12' W 123°26'8 1.2
2014-Aug-15 20:29N 46°09' W 123°16'3 3.0
2014-Aug-15 19:29N 46°09' W 123°20'4 3.3
2014-Aug-15 18:22N 46°10' W 123°25'2 1.3
2014-Aug-15 16:32N 46°13' W 123°26'0 0.2
2014-Aug-15 15:33N 46°13' W 123°26'0 0.1
2014-Aug-15 14:28N 46°13' W 123°26'0 0.0
2014-Aug-15 13:28N 46°13' W 123°26'0 0.0
2014-Aug-15 12:31N 46°13' W 123°26'0 0.0
2014-Aug-15 11:31N 46°13' W 123°26'0 0.0
2014-Aug-15 10:31N 46°13' W 123°26'1 1.3
2014-Aug-15 09:33N 46°12' W 123°26'7 6.9
2014-Aug-15 08:33N 46°09' W 123°16'7 6.5
2014-Aug-15 07:26N 46°10' W 123°06'0 0.1
2014-Aug-15 06:33N 46°10' W 123°06'2 1.5
2014-Aug-15 05:04N 46°11' W 123°09'2 2.5
2014-Aug-15 04:23N 46°11' W 123°11'5 2.5
2014-Aug-15 02:15N 46°09' W 123°18'3 3.3
2014-Aug-15 01:28N 46°09' W 123°22'4 3.6
2014-Aug-15 00:28N 46°11' W 123°26'1 0.9
2014-Aug-14 23:32N 46°11' W 123°25'6 5.8
2014-Aug-14 22:33N 46°09' W 123°17'7 6.9
2014-Aug-14 21:34N 46°11' W 123°08'2 2.2
2014-Aug-14 20:33N 46°11' W 123°11'3 3.1
2014-Aug-14 19:33N 46°09' W 123°15'3 2.9
2014-Aug-14 18:33N 46°09' W 123°19'3 3.2
2014-Aug-14 17:33N 46°09' W 123°24'3 2.9
2014-Aug-14 16:33N 46°12' W 123°26'0 0.3
2014-Aug-14 15:33N 46°12' W 123°26'1 0.7
2014-Aug-14 14:32N 46°13' W 123°26'1 0.9
2014-Aug-14 13:33N 46°12' W 123°26'0 0.1
2014-Aug-14 12:31N 46°12' W 123°26'0 0.1
2014-Aug-14 11:33N 46°12' W 123°26'1 0.8
2014-Aug-14 10:29N 46°13' W 123°26'1 0.7
2014-Aug-14 09:33N 46°12' W 123°26'0 0.0
2014-Aug-14 08:33N 46°12' W 123°26'0 0.2
2014-Aug-14 07:33N 46°12' W 123°26'1 0.8
2014-Aug-14 06:32N 46°13' W 123°26'1 0.8
2014-Aug-14 05:33N 46°12' W 123°26'0 0.4
2014-Aug-14 04:33N 46°12' W 123°26'0 0.0
2014-Aug-14 03:33N 46°12' W 123°26'0 0.1
2014-Aug-14 02:33N 46°12' W 123°26'0 0.0
2014-Aug-14 01:31N 46°12' W 123°26'0 0.3
2014-Aug-14 00:34N 46°12' W 123°26'1 0.8
2014-Aug-13 23:34N 46°13' W 123°26'1 0.6
2014-Aug-13 22:33N 46°13' W 123°26'0 0.0
2014-Aug-13 21:29N 46°13' W 123°26'0 0.3
2014-Aug-13 20:33N 46°12' W 123°26'1 0.6
2014-Aug-13 19:34N 46°13' W 123°26'1 0.9
2014-Aug-13 18:34N 46°12' W 123°26'1 0.6
2014-Aug-13 17:33N 46°13' W 123°26'0 0.1
2014-Aug-13 16:31N 46°13' W 123°26'0 0.1
2014-Aug-13 15:33N 46°13' W 123°26'0 0.3
2014-Aug-13 14:32N 46°13' W 123°26'0 0.0
2014-Aug-13 13:32N 46°13' W 123°26'0 0.0
2014-Aug-13 12:33N 46°13' W 123°26'0 0.0
2014-Aug-13 11:29N 46°13' W 123°26'0 0.0
2014-Aug-13 10:29N 46°13' W 123°26'0 0.0
2014-Aug-13 09:32N 46°13' W 123°26'0 0.0
2014-Aug-13 08:32N 46°13' W 123°26'0 0.0
2014-Aug-13 07:33N 46°13' W 123°26'0 0.0
2014-Aug-13 06:33N 46°13' W 123°26'0 0.0
2014-Aug-13 05:29N 46°13' W 123°26'0 0.0
2014-Aug-13 04:32N 46°13' W 123°26'0 0.0
2014-Aug-13 03:32N 46°13' W 123°26'0 0.0
2014-Aug-13 02:33N 46°13' W 123°26'8 7.9
2014-Aug-13 01:33N 46°09' W 123°15'7 6.6
2014-Aug-13 00:34N 46°10' W 123°06'1 1.1
2014-Aug-12 23:33N 46°11' W 123°07'4 3.5
2014-Aug-12 22:34N 46°10' W 123°12'3 3.3
2014-Aug-12 21:34N 46°09' W 123°16'3 2.9
2014-Aug-12 20:33N 46°09' W 123°21'2 2.1
2014-Aug-12 19:33N 46°09' W 123°23'1 1.4
2014-Aug-12 18:33N 46°10' W 123°25'1 1.0
2014-Aug-12 17:33N 46°11' W 123°26'1 0.9
2014-Aug-12 16:32N 46°12' W 123°26'0 0.0
2014-Aug-12 15:31N 46°12' W 123°26'1 0.9
2014-Aug-12 14:33N 46°13' W 123°26'0 0.0
2014-Aug-12 13:30N 46°13' W 123°26'0 0.0
2014-Aug-12 12:30N 46°13' W 123°26'0 0.0
2014-Aug-12 11:33N 46°13' W 123°26'0 0.0
2014-Aug-12 10:30N 46°13' W 123°26'0 0.0
2014-Aug-12 09:33N 46°13' W 123°26'0 0.0
2014-Aug-12 08:33N 46°13' W 123°26'0 0.0
2014-Aug-12 07:30N 46°13' W 123°26'0 0.0
2014-Aug-12 05:18N 46°13' W 123°26'0 0.0
2014-Aug-12 04:12N 46°13' W 123°26'0 0.0
2014-Aug-12 03:12N 46°13' W 123°26'0 0.0
2014-Aug-12 02:33N 46°13' W 123°26'4 4.4
2014-Aug-12 01:33N 46°09' W 123°22'12 5.8
2014-Aug-11 23:31N 46°10' W 123°05'3 3.1
2014-Aug-11 22:33N 46°11' W 123°09'4 4.0
2014-Aug-11 21:33N 46°10' W 123°14'3 3.4
2014-Aug-11 20:33N 46°09' W 123°19'4 2.1
2014-Aug-11 18:28N 46°10' W 123°25'1 1.3
2014-Aug-11 17:31N 46°11' W 123°26'1 1.3
2014-Aug-11 16:31N 46°13' W 123°25'1 0.9
2014-Aug-11 15:33N 46°13' W 123°26'1 0.9
2014-Aug-11 14:33N 46°13' W 123°26'0 0.0
2014-Aug-11 13:31N 46°13' W 123°26'0 0.0
2014-Aug-11 12:31N 46°13' W 123°26'0 0.0
2014-Aug-11 11:22N 46°13' W 123°26'0 0.0
2014-Aug-11 06:28N 46°13' W 123°26'0 0.0
2014-Aug-11 05:31N 46°13' W 123°26'0 0.0
2014-Aug-11 04:28N 46°13' W 123°26'0 0.0
2014-Aug-11 03:31N 46°13' W 123°26'0 0.0
2014-Aug-11 02:22N 46°13' W 123°26'0 0.0
2014-Aug-10 23:28N 46°13' W 123°26'0 0.0
2014-Aug-10 22:22N 46°13' W 123°26'0 0.1
2014-Aug-10 21:33N 46°13' W 123°26'0 0.2
2014-Aug-10 20:33N 46°12' W 123°26'0 0.2
2014-Aug-10 19:33N 46°13' W 123°26'0 0.0
2014-Aug-10 18:30N 46°13' W 123°26'0 0.3
2014-Aug-10 17:33N 46°12' W 123°26'0 0.0
2014-Aug-10 16:33N 46°12' W 123°26'0 0.3
2014-Aug-10 15:31N 46°13' W 123°26'0 0.0
2014-Aug-10 14:29N 46°13' W 123°26'0 0.0
2014-Aug-10 13:34N 46°13' W 123°26'0 0.0
2014-Aug-10 12:24N 46°13' W 123°26'0 0.0
2014-Aug-10 11:26N 46°13' W 123°26'0 0.1
2014-Aug-10 10:29N 46°12' W 123°26'0 0.0
2014-Aug-10 09:06N 46°13' W 123°26'0 0.0
2014-Aug-10 08:18N 46°12' W 123°26'0 0.2
2014-Aug-10 07:26N 46°12' W 123°25'0 0.3
2014-Aug-10 06:31N 46°12' W 123°26'0 0.1
2014-Aug-10 04:14N 46°12' W 123°26'0 0.0
2014-Aug-10 03:10N 46°12' W 123°26'0 0.1
2014-Aug-10 02:31N 46°12' W 123°26'0 0.0
2014-Aug-10 01:31N 46°12' W 123°26'0 0.0
2014-Aug-10 00:31N 46°12' W 123°26'0 0.0
2014-Aug-09 22:22N 46°12' W 123°26'0 0.0
2014-Aug-09 21:28N 46°12' W 123°26'1 1.1
2014-Aug-09 20:32N 46°13' W 123°26'0 0.0
2014-Aug-09 19:20N 46°13' W 123°26'0 0.0
2014-Aug-09 18:29N 46°13' W 123°26'1 1.2
2014-Aug-09 17:33N 46°12' W 123°26'  
Track history (hours):
 
Tides and Currents Weather Stations Pressure Air Temp Water Temp Dewpoint Dewpoint Depression Visibility Wind Speed Wind Dir Waves Ship Positions

Clackamas

More information available from US FCC via Universal Licensing System and Coast Guard Vessel Documentation Center.

Last reported at 2014-Aug-19 17:27 UTC. Time now 2014-Sep-03 00:01 UTC.
Position N 46°10' W 123°05'.
Warning: this ship's position is 14 days out of date.

Length 19 m.

Type: Dredging. MMSI: 367476050.

Date/timePositionNaut miles runAvg speedWind from/ knotsBaromVisibWave heightAir tempDewpointWater temp
2014-Aug-19 17:27N 46°10' W 123°05'0 0.0
2014-Aug-19 16:30N 46°10' W 123°05'0 0.0
2014-Aug-19 10:18N 46°10' W 123°05'0 0.0
2014-Aug-19 09:21N 46°10' W 123°05'0 0.0
2014-Aug-19 08:18N 46°10' W 123°05'0 0.0
2014-Aug-19 07:21N 46°10' W 123°05'0 0.0
2014-Aug-19 06:12N 46°10' W 123°05'0 0.0
2014-Aug-19 05:30N 46°10' W 123°05'1 0.1
2014-Aug-18 20:33N 46°10' W 123°04'0 0.3
2014-Aug-18 19:33N 46°10' W 123°04'3 3.0
2014-Aug-18 18:33N 46°11' W 123°08'2 2.3
2014-Aug-18 17:33N 46°10' W 123°05'0 0.4
2014-Aug-18 16:33N 46°10' W 123°06'0 0.1
2014-Aug-18 15:32N 46°10' W 123°06'1 0.1
2014-Aug-18 09:04N 46°10' W 123°05'0 0.0
2014-Aug-18 07:31N 46°10' W 123°05'0 0.0
2014-Aug-18 05:28N 46°10' W 123°05'0 0.0
2014-Aug-17 18:07N 46°10' W 123°05'0 0.0
2014-Aug-17 17:31N 46°10' W 123°05'0 0.0
2014-Aug-17 16:22N 46°10' W 123°05'0 0.0
2014-Aug-17 15:22N 46°10' W 123°05'0 0.0
2014-Aug-17 13:22N 46°10' W 123°05'0 0.0
2014-Aug-17 10:31N 46°10' W 123°05'0 0.0
2014-Aug-17 09:25N 46°10' W 123°05'0 0.0
2014-Aug-17 08:19N 46°10' W 123°05'0 0.0
2014-Aug-17 07:13N 46°10' W 123°05'0 0.0
2014-Aug-17 06:31N 46°10' W 123°05'0 0.0
2014-Aug-17 05:31N 46°10' W 123°05'0 0.0
2014-Aug-17 04:25N 46°10' W 123°05'2 0.1
2014-Aug-16 07:33N 46°11' W 123°08'3 2.8
2014-Aug-16 06:33N 46°11' W 123°12'4 3.9
2014-Aug-16 05:33N 46°09' W 123°17'4 4.3
2014-Aug-16 04:32N 46°09' W 123°23'4 3.2
2014-Aug-16 03:20N 46°12' W 123°26'8 1.2
2014-Aug-15 20:29N 46°09' W 123°16'3 3.0
2014-Aug-15 19:29N 46°09' W 123°20'4 3.3
2014-Aug-15 18:22N 46°10' W 123°25'2 1.3
2014-Aug-15 16:32N 46°13' W 123°26'0 0.2
2014-Aug-15 15:33N 46°13' W 123°26'0 0.1
2014-Aug-15 14:28N 46°13' W 123°26'0 0.0
2014-Aug-15 13:28N 46°13' W 123°26'0 0.0
2014-Aug-15 12:31N 46°13' W 123°26'0 0.0
2014-Aug-15 11:31N 46°13' W 123°26'0 0.0
2014-Aug-15 10:31N 46°13' W 123°26'1 1.3
2014-Aug-15 09:33N 46°12' W 123°26'7 6.9
2014-Aug-15 08:33N 46°09' W 123°16'7 6.5
2014-Aug-15 07:26N 46°10' W 123°06'0 0.1
2014-Aug-15 06:33N 46°10' W 123°06'2 1.5
2014-Aug-15 05:04N 46°11' W 123°09'2 2.5
2014-Aug-15 04:23N 46°11' W 123°11'5 2.5
2014-Aug-15 02:15N 46°09' W 123°18'3 3.3
2014-Aug-15 01:28N 46°09' W 123°22'4 3.6
2014-Aug-15 00:28N 46°11' W 123°26'1 0.9
2014-Aug-14 23:32N 46°11' W 123°25'6 5.8
2014-Aug-14 22:33N 46°09' W 123°17'7 6.9
2014-Aug-14 21:34N 46°11' W 123°08'2 2.2
2014-Aug-14 20:33N 46°11' W 123°11'3 3.1
2014-Aug-14 19:33N 46°09' W 123°15'3 2.9
2014-Aug-14 18:33N 46°09' W 123°19'3 3.2
2014-Aug-14 17:33N 46°09' W 123°24'3 2.9
2014-Aug-14 16:33N 46°12' W 123°26'0 0.3
2014-Aug-14 15:33N 46°12' W 123°26'1 0.7
2014-Aug-14 14:32N 46°13' W 123°26'1 0.9
2014-Aug-14 13:33N 46°12' W 123°26'0 0.1
2014-Aug-14 12:31N 46°12' W 123°26'0 0.1
2014-Aug-14 11:33N 46°12' W 123°26'1 0.8
2014-Aug-14 10:29N 46°13' W 123°26'1 0.7
2014-Aug-14 09:33N 46°12' W 123°26'0 0.0
2014-Aug-14 08:33N 46°12' W 123°26'0 0.2
2014-Aug-14 07:33N 46°12' W 123°26'1 0.8
2014-Aug-14 06:32N 46°13' W 123°26'1 0.8
2014-Aug-14 05:33N 46°12' W 123°26'0 0.4
2014-Aug-14 04:33N 46°12' W 123°26'0 0.0
2014-Aug-14 03:33N 46°12' W 123°26'0 0.1
2014-Aug-14 02:33N 46°12' W 123°26'0 0.0
2014-Aug-14 01:31N 46°12' W 123°26'0 0.3
2014-Aug-14 00:34N 46°12' W 123°26'1 0.8
2014-Aug-13 23:34N 46°13' W 123°26'1 0.6
2014-Aug-13 22:33N 46°13' W 123°26'0 0.0
2014-Aug-13 21:29N 46°13' W 123°26'0 0.3
2014-Aug-13 20:33N 46°12' W 123°26'1 0.6
2014-Aug-13 19:34N 46°13' W 123°26'1 0.9
2014-Aug-13 18:34N 46°12' W 123°26'1 0.6
2014-Aug-13 17:33N 46°13' W 123°26'0 0.1
2014-Aug-13 16:31N 46°13' W 123°26'0 0.1
2014-Aug-13 15:33N 46°13' W 123°26'0 0.3
2014-Aug-13 14:32N 46°13' W 123°26'0 0.0
2014-Aug-13 13:32N 46°13' W 123°26'0 0.0
2014-Aug-13 12:33N 46°13' W 123°26'0 0.0
2014-Aug-13 11:29N 46°13' W 123°26'0 0.0
2014-Aug-13 10:29N 46°13' W 123°26'0 0.0
2014-Aug-13 09:32N 46°13' W 123°26'0 0.0
2014-Aug-13 08:32N 46°13' W 123°26'0 0.0
2014-Aug-13 07:33N 46°13' W 123°26'0 0.0
2014-Aug-13 06:33N 46°13' W 123°26'0 0.0
2014-Aug-13 05:29N 46°13' W 123°26'0 0.0
2014-Aug-13 04:32N 46°13' W 123°26'0 0.0
2014-Aug-13 03:32N 46°13' W 123°26'0 0.0
2014-Aug-13 02:33N 46°13' W 123°26'8 7.9
2014-Aug-13 01:33N 46°09' W 123°15'7 6.6
2014-Aug-13 00:34N 46°10' W 123°06'1 1.1
2014-Aug-12 23:33N 46°11' W 123°07'4 3.5
2014-Aug-12 22:34N 46°10' W 123°12'3 3.3
2014-Aug-12 21:34N 46°09' W 123°16'3 2.9
2014-Aug-12 20:33N 46°09' W 123°21'2 2.1
2014-Aug-12 19:33N 46°09' W 123°23'1 1.4
2014-Aug-12 18:33N 46°10' W 123°25'1 1.0
2014-Aug-12 17:33N 46°11' W 123°26'1 0.9
2014-Aug-12 16:32N 46°12' W 123°26'0 0.0
2014-Aug-12 15:31N 46°12' W 123°26'1 0.9
2014-Aug-12 14:33N 46°13' W 123°26'0 0.0
2014-Aug-12 13:30N 46°13' W 123°26'0 0.0
2014-Aug-12 12:30N 46°13' W 123°26'0 0.0
2014-Aug-12 11:33N 46°13' W 123°26'0 0.0
2014-Aug-12 10:30N 46°13' W 123°26'0 0.0
2014-Aug-12 09:33N 46°13' W 123°26'0 0.0
2014-Aug-12 08:33N 46°13' W 123°26'0 0.0
2014-Aug-12 07:30N 46°13' W 123°26'0 0.0
2014-Aug-12 05:18N 46°13' W 123°26'0 0.0
2014-Aug-12 04:12N 46°13' W 123°26'0 0.0
2014-Aug-12 03:12N 46°13' W 123°26'0 0.0
2014-Aug-12 02:33N 46°13' W 123°26'4 4.4
2014-Aug-12 01:33N 46°09' W 123°22'12 5.8
2014-Aug-11 23:31N 46°10' W 123°05'3 3.1
2014-Aug-11 22:33N 46°11' W 123°09'4 4.0
2014-Aug-11 21:33N 46°10' W 123°14'3 3.4
2014-Aug-11 20:33N 46°09' W 123°19'4 2.1
2014-Aug-11 18:28N 46°10' W 123°25'1 1.3
2014-Aug-11 17:31N 46°11' W 123°26'1 1.3
2014-Aug-11 16:31N 46°13' W 123°25'1 0.9
2014-Aug-11 15:33N 46°13' W 123°26'1 0.9
2014-Aug-11 14:33N 46°13' W 123°26'0 0.0
2014-Aug-11 13:31N 46°13' W 123°26'0 0.0
2014-Aug-11 12:31N 46°13' W 123°26'0 0.0
2014-Aug-11 11:22N 46°13' W 123°26'0 0.0
2014-Aug-11 06:28N 46°13' W 123°26'0 0.0
2014-Aug-11 05:31N 46°13' W 123°26'0 0.0
2014-Aug-11 04:28N 46°13' W 123°26'0 0.0
2014-Aug-11 03:31N 46°13' W 123°26'0 0.0
2014-Aug-11 02:22N 46°13' W 123°26'0 0.0
2014-Aug-10 23:28N 46°13' W 123°26'0 0.0
2014-Aug-10 22:22N 46°13' W 123°26'0 0.1
2014-Aug-10 21:33N 46°13' W 123°26'0 0.2
2014-Aug-10 20:33N 46°12' W 123°26'0 0.2
2014-Aug-10 19:33N 46°13' W 123°26'0 0.0
2014-Aug-10 18:30N 46°13' W 123°26'0 0.3
2014-Aug-10 17:33N 46°12' W 123°26'0 0.0
2014-Aug-10 16:33N 46°12' W 123°26'0 0.3
2014-Aug-10 15:31N 46°13' W 123°26'0 0.0
2014-Aug-10 14:29N 46°13' W 123°26'0 0.0
2014-Aug-10 13:34N 46°13' W 123°26'0 0.0
2014-Aug-10 12:24N 46°13' W 123°26'0 0.0
2014-Aug-10 11:26N 46°13' W 123°26'0 0.1
2014-Aug-10 10:29N 46°12' W 123°26'0 0.0
2014-Aug-10 09:06N 46°13' W 123°26'0 0.0
2014-Aug-10 08:18N 46°12' W 123°26'0 0.2
2014-Aug-10 07:26N 46°12' W 123°25'0 0.3
2014-Aug-10 06:31N 46°12' W 123°26'0 0.1
2014-Aug-10 04:14N 46°12' W 123°26'0 0.0
2014-Aug-10 03:10N 46°12' W 123°26'0 0.1
2014-Aug-10 02:31N 46°12' W 123°26'0 0.0
2014-Aug-10 01:31N 46°12' W 123°26'0 0.0
2014-Aug-10 00:31N 46°12' W 123°26'0 0.0
2014-Aug-09 22:22N 46°12' W 123°26'0 0.0
2014-Aug-09 21:28N 46°12' W 123°26'1 1.1
2014-Aug-09 20:32N 46°13' W 123°26'0 0.0
2014-Aug-09 19:20N 46°13' W 123°26'0 0.0
2014-Aug-09 18:29N 46°13' W 123°26'1 1.2
2014-Aug-09 17:33N 46°12' W 123°26'  

Dump ship's entire track history